logo
Rechercher aéroport 
image banner adimage banner adimage banner ad
image banner ad

CL65 - H B P D

Situé à Huntington Beach, United States

ICAO - CL65, IATA -

Données fournies par Airmate  

Information générale

Coordonnées: N33°41'43" W118°0'6"
Élévation : 56 feet MSL.
Variation magnétique : 14° East
Voir autres Aéroports à California

Données opérationnelles

Special qualification required
Heure actuelle UTC:
Heure actuelle locale:
Météo à : KSLI - Los Alamitos Aaf ( 11 km )
METAR: KSLI 050655Z AUTO 00000KT 10SM OVC004 15/14 A3005 RMK AO2 DZB04E14 OVC V BKN SLP179 P0000 T01470141
TAF: TAF KSLI 050500Z 0505/0611 VRB06KT 8000 BR OVC011 QNH3006INS BECMG 0506/0507 VRB06KT 8000 BR BKN004 OVC011 QNH3003INS BECMG 0510/0511 VRB06KT 8000 BR FEW004 OVC011 QNH3004INS BECMG 0511/0512 VRB06KT 8000 BR BKN004 OVC011 QNH3002INS BECMG 0513/0514 VRB06KT 8000 BR SCT004 OVC011 QNH3003INS BECMG 0517/0518 VRB06KT 8000 BR SCT018 SCT025 BKN250 QNH2996INS BECMG 0607/0608 VRB06KT 9999 NSW BKN025 OVC040 QNH3000INS TX16/0523Z TN12/0611Z
Voir NOTAMs / SUP AIP / TFR affectant cet aéroport [VIEW]
Fréquences de communication: [VIEW]

Pistes:

Coordonnées de l'aéroport

Adresse: Huntington Beach United States

Vue satellite de CL65